sensor_id;sensor_type;location;lat;lon;timestamp;P1;durP1;ratioP1;P2;durP2;ratioP2
42030;SDS011;27709;52.036;5.906;2023-09-19T00:01:46;3.92;;;0.93;;
42030;SDS011;27709;52.036;5.906;2023-09-19T00:04:11;3.85;;;0.88;;
42030;SDS011;27709;52.036;5.906;2023-09-19T00:06:37;3.35;;;1.00;;
42030;SDS011;27709;52.036;5.906;2023-09-19T00:09:03;5.78;;;1.05;;
42030;SDS011;27709;52.036;5.906;2023-09-19T00:11:29;6.28;;;1.10;;
42030;SDS011;27709;52.036;5.906;2023-09-19T00:13:55;2.88;;;0.95;;
42030;SDS011;27709;52.036;5.906;2023-09-19T00:16:22;3.58;;;1.02;;
42030;SDS011;27709;52.036;5.906;2023-09-19T00:18:48;5.05;;;1.50;;
42030;SDS011;27709;52.036;5.906;2023-09-19T00:21:14;7.10;;;1.05;;
42030;SDS011;27709;52.036;5.906;2023-09-19T00:23:40;4.57;;;1.00;;
42030;SDS011;27709;52.036;5.906;2023-09-19T00:26:06;3.30;;;0.90;;
42030;SDS011;27709;52.036;5.906;2023-09-19T00:28:31;3.53;;;1.02;;
42030;SDS011;27709;52.036;5.906;2023-09-19T00:30:57;4.63;;;1.42;;
42030;SDS011;27709;52.036;5.906;2023-09-19T00:33:26;3.90;;;0.90;;
42030;SDS011;27709;52.036;5.906;2023-09-19T00:35:52;6.30;;;1.20;;
42030;SDS011;27709;52.036;5.906;2023-09-19T00:38:19;4.85;;;1.38;;
42030;SDS011;27709;52.036;5.906;2023-09-19T00:40:47;7.30;;;1.33;;
42030;SDS011;27709;52.036;5.906;2023-09-19T00:43:29;4.50;;;0.93;;
42030;SDS011;27709;52.036;5.906;2023-09-19T00:45:59;6.68;;;1.25;;
42030;SDS011;27709;52.036;5.906;2023-09-19T00:48:28;6.15;;;1.33;;
42030;SDS011;27709;52.036;5.906;2023-09-19T00:50:54;4.75;;;1.08;;
42030;SDS011;27709;52.036;5.906;2023-09-19T00:53:23;4.45;;;1.30;;
42030;SDS011;27709;52.036;5.906;2023-09-19T00:55:52;8.70;;;1.70;;
42030;SDS011;27709;52.036;5.906;2023-09-19T00:58:18;10.13;;;1.77;;
42030;SDS011;27709;52.036;5.906;2023-09-19T01:00:44;6.15;;;1.42;;
42030;SDS011;27709;52.036;5.906;2023-09-19T01:03:11;6.97;;;1.65;;
42030;SDS011;27709;52.036;5.906;2023-09-19T01:05:38;5.05;;;1.10;;
42030;SDS011;27709;52.036;5.906;2023-09-19T01:08:04;6.20;;;1.65;;
42030;SDS011;27709;52.036;5.906;2023-09-19T01:10:31;5.25;;;1.33;;
42030;SDS011;27709;52.036;5.906;2023-09-19T01:13:03;7.57;;;1.60;;
42030;SDS011;27709;52.036;5.906;2023-09-19T01:27:14;9.57;;;1.80;;
42030;SDS011;27709;52.036;5.906;2023-09-19T01:30:02;12.02;;;1.80;;
42030;SDS011;27709;52.036;5.906;2023-09-19T01:32:39;12.00;;;2.22;;
42030;SDS011;27709;52.036;5.906;2023-09-19T01:35:06;13.10;;;2.22;;
42030;SDS011;27709;52.036;5.906;2023-09-19T01:37:37;9.00;;;2.10;;
42030;SDS011;27709;52.036;5.906;2023-09-19T01:45:35;7.10;;;1.70;;
42030;SDS011;27709;52.036;5.906;2023-09-19T01:51:07;10.85;;;1.90;;
42030;SDS011;27709;52.036;5.906;2023-09-19T01:53:36;10.30;;;2.35;;
42030;SDS011;27709;52.036;5.906;2023-09-19T01:56:23;9.35;;;1.83;;
42030;SDS011;27709;52.036;5.906;2023-09-19T01:59:01;10.13;;;2.13;;
42030;SDS011;27709;52.036;5.906;2023-09-19T02:01:32;8.95;;;1.85;;
42030;SDS011;27709;52.036;5.906;2023-09-19T02:03:58;11.90;;;2.30;;
42030;SDS011;27709;52.036;5.906;2023-09-19T02:06:24;10.48;;;1.95;;
42030;SDS011;27709;52.036;5.906;2023-09-19T02:08:50;10.50;;;2.05;;
42030;SDS011;27709;52.036;5.906;2023-09-19T02:11:15;9.23;;;2.35;;
42030;SDS011;27709;52.036;5.906;2023-09-19T02:13:41;10.35;;;1.88;;
42030;SDS011;27709;52.036;5.906;2023-09-19T02:16:07;9.80;;;1.70;;
42030;SDS011;27709;52.036;5.906;2023-09-19T02:18:35;9.13;;;1.77;;
42030;SDS011;27709;52.036;5.906;2023-09-19T02:21:01;8.88;;;1.70;;
42030;SDS011;27709;52.036;5.906;2023-09-19T02:23:29;11.75;;;1.95;;
42030;SDS011;27709;52.036;5.906;2023-09-19T02:25:55;11.05;;;1.88;;
42030;SDS011;27709;52.036;5.906;2023-09-19T02:28:25;10.77;;;1.67;;
42030;SDS011;27709;52.036;5.906;2023-09-19T02:30:55;11.27;;;2.00;;
42030;SDS011;27709;52.036;5.906;2023-09-19T02:33:21;12.57;;;1.95;;
42030;SDS011;27709;52.036;5.906;2023-09-19T02:35:46;9.70;;;2.05;;
42030;SDS011;27709;52.036;5.906;2023-09-19T02:38:12;11.18;;;1.67;;
42030;SDS011;27709;52.036;5.906;2023-09-19T02:40:39;11.15;;;1.98;;
42030;SDS011;27709;52.036;5.906;2023-09-19T02:43:04;7.28;;;1.65;;
42030;SDS011;27709;52.036;5.906;2023-09-19T02:45:30;6.72;;;1.60;;
42030;SDS011;27709;52.036;5.906;2023-09-19T02:47:57;9.32;;;2.25;;
42030;SDS011;27709;52.036;5.906;2023-09-19T02:50:23;9.18;;;1.70;;
42030;SDS011;27709;52.036;5.906;2023-09-19T02:52:48;12.27;;;2.20;;
42030;SDS011;27709;52.036;5.906;2023-09-19T02:55:15;13.80;;;2.05;;
42030;SDS011;27709;52.036;5.906;2023-09-19T02:57:45;8.75;;;1.80;;
42030;SDS011;27709;52.036;5.906;2023-09-19T03:00:12;8.45;;;2.17;;
42030;SDS011;27709;52.036;5.906;2023-09-19T03:02:39;10.93;;;1.95;;
42030;SDS011;27709;52.036;5.906;2023-09-19T03:05:06;13.77;;;2.25;;
42030;SDS011;27709;52.036;5.906;2023-09-19T03:07:32;10.00;;;2.22;;
42030;SDS011;27709;52.036;5.906;2023-09-19T03:09:58;12.00;;;1.90;;
42030;SDS011;27709;52.036;5.906;2023-09-19T03:12:24;12.10;;;2.20;;
42030;SDS011;27709;52.036;5.906;2023-09-19T03:14:50;11.70;;;1.58;;
42030;SDS011;27709;52.036;5.906;2023-09-19T03:17:16;9.70;;;2.10;;
42030;SDS011;27709;52.036;5.906;2023-09-19T03:19:44;10.23;;;1.60;;
42030;SDS011;27709;52.036;5.906;2023-09-19T03:22:10;9.98;;;1.60;;
42030;SDS011;27709;52.036;5.906;2023-09-19T03:24:35;10.25;;;1.70;;
42030;SDS011;27709;52.036;5.906;2023-09-19T03:27:02;9.40;;;1.90;;
42030;SDS011;27709;52.036;5.906;2023-09-19T03:29:28;11.77;;;1.75;;
42030;SDS011;27709;52.036;5.906;2023-09-19T03:31:53;8.38;;;1.60;;
42030;SDS011;27709;52.036;5.906;2023-09-19T03:34:19;11.07;;;1.90;;
42030;SDS011;27709;52.036;5.906;2023-09-19T03:36:45;9.77;;;1.45;;
42030;SDS011;27709;52.036;5.906;2023-09-19T03:39:11;11.57;;;1.95;;
42030;SDS011;27709;52.036;5.906;2023-09-19T03:41:36;8.23;;;1.77;;
42030;SDS011;27709;52.036;5.906;2023-09-19T03:44:02;11.40;;;1.88;;
42030;SDS011;27709;52.036;5.906;2023-09-19T03:46:28;9.38;;;2.13;;
42030;SDS011;27709;52.036;5.906;2023-09-19T03:48:55;9.35;;;1.83;;
42030;SDS011;27709;52.036;5.906;2023-09-19T03:51:20;9.85;;;2.20;;
42030;SDS011;27709;52.036;5.906;2023-09-19T03:53:46;9.82;;;2.25;;
42030;SDS011;27709;52.036;5.906;2023-09-19T03:56:14;12.80;;;2.30;;
42030;SDS011;27709;52.036;5.906;2023-09-19T03:58:39;8.15;;;1.45;;
42030;SDS011;27709;52.036;5.906;2023-09-19T04:01:05;10.25;;;1.77;;
42030;SDS011;27709;52.036;5.906;2023-09-19T04:03:34;11.98;;;2.45;;
42030;SDS011;27709;52.036;5.906;2023-09-19T04:06:10;11.00;;;1.73;;
42030;SDS011;27709;52.036;5.906;2023-09-19T04:08:37;10.32;;;1.75;;
42030;SDS011;27709;52.036;5.906;2023-09-19T04:11:02;14.88;;;2.25;;
42030;SDS011;27709;52.036;5.906;2023-09-19T04:13:30;7.80;;;1.83;;
42030;SDS011;27709;52.036;5.906;2023-09-19T04:15:55;9.73;;;1.65;;
42030;SDS011;27709;52.036;5.906;2023-09-19T04:18:21;9.85;;;1.83;;
42030;SDS011;27709;52.036;5.906;2023-09-19T04:20:51;6.63;;;1.30;;
42030;SDS011;27709;52.036;5.906;2023-09-19T04:23:18;10.07;;;2.00;;
42030;SDS011;27709;52.036;5.906;2023-09-19T04:25:45;9.73;;;1.73;;
42030;SDS011;27709;52.036;5.906;2023-09-19T04:28:10;7.57;;;1.50;;
42030;SDS011;27709;52.036;5.906;2023-09-19T04:30:36;10.48;;;1.85;;
42030;SDS011;27709;52.036;5.906;2023-09-19T04:33:02;8.82;;;1.63;;
42030;SDS011;27709;52.036;5.906;2023-09-19T04:35:28;8.23;;;1.30;;
42030;SDS011;27709;52.036;5.906;2023-09-19T04:37:56;8.73;;;1.70;;
42030;SDS011;27709;52.036;5.906;2023-09-19T04:40:22;10.30;;;1.75;;
42030;SDS011;27709;52.036;5.906;2023-09-19T04:42:56;11.20;;;1.90;;
42030;SDS011;27709;52.036;5.906;2023-09-19T04:45:22;13.10;;;1.90;;
42030;SDS011;27709;52.036;5.906;2023-09-19T04:47:51;7.68;;;1.60;;
42030;SDS011;27709;52.036;5.906;2023-09-19T04:50:17;6.03;;;1.52;;
42030;SDS011;27709;52.036;5.906;2023-09-19T04:52:43;7.10;;;1.88;;
42030;SDS011;27709;52.036;5.906;2023-09-19T04:55:13;10.73;;;1.73;;
42030;SDS011;27709;52.036;5.906;2023-09-19T04:57:48;8.00;;;1.70;;
42030;SDS011;27709;52.036;5.906;2023-09-19T05:00:19;7.22;;;1.60;;
42030;SDS011;27709;52.036;5.906;2023-09-19T05:02:49;8.65;;;1.70;;
42030;SDS011;27709;52.036;5.906;2023-09-19T05:05:16;8.90;;;1.83;;
42030;SDS011;27709;52.036;5.906;2023-09-19T05:07:43;7.82;;;1.65;;
42030;SDS011;27709;52.036;5.906;2023-09-19T05:10:09;6.75;;;1.15;;
42030;SDS011;27709;52.036;5.906;2023-09-19T05:12:36;9.63;;;1.70;;
42030;SDS011;27709;52.036;5.906;2023-09-19T05:15:02;7.80;;;1.60;;
42030;SDS011;27709;52.036;5.906;2023-09-19T05:17:34;8.50;;;1.48;;
42030;SDS011;27709;52.036;5.906;2023-09-19T05:20:00;9.18;;;1.52;;
42030;SDS011;27709;52.036;5.906;2023-09-19T05:22:40;6.25;;;1.30;;
42030;SDS011;27709;52.036;5.906;2023-09-19T05:25:06;9.15;;;1.73;;
42030;SDS011;27709;52.036;5.906;2023-09-19T05:27:33;9.35;;;1.63;;
42030;SDS011;27709;52.036;5.906;2023-09-19T05:30:01;7.18;;;1.65;;
42030;SDS011;27709;52.036;5.906;2023-09-19T05:32:27;9.70;;;1.75;;
42030;SDS011;27709;52.036;5.906;2023-09-19T05:34:52;9.48;;;1.65;;
42030;SDS011;27709;52.036;5.906;2023-09-19T05:37:18;7.38;;;1.42;;
42030;SDS011;27709;52.036;5.906;2023-09-19T05:39:44;9.63;;;1.88;;
42030;SDS011;27709;52.036;5.906;2023-09-19T05:42:10;8.57;;;1.60;;
42030;SDS011;27709;52.036;5.906;2023-09-19T05:44:35;12.00;;;1.77;;
42030;SDS011;27709;52.036;5.906;2023-09-19T05:47:01;7.22;;;1.73;;
42030;SDS011;27709;52.036;5.906;2023-09-19T05:49:28;9.57;;;2.00;;
42030;SDS011;27709;52.036;5.906;2023-09-19T05:51:53;7.82;;;1.63;;
42030;SDS011;27709;52.036;5.906;2023-09-19T05:54:20;7.90;;;1.50;;
42030;SDS011;27709;52.036;5.906;2023-09-19T05:56:45;10.68;;;1.90;;
42030;SDS011;27709;52.036;5.906;2023-09-19T05:59:12;8.75;;;1.77;;
42030;SDS011;27709;52.036;5.906;2023-09-19T06:01:40;8.50;;;1.63;;
42030;SDS011;27709;52.036;5.906;2023-09-19T06:04:07;11.30;;;2.03;;
42030;SDS011;27709;52.036;5.906;2023-09-19T06:06:33;10.90;;;1.77;;
42030;SDS011;27709;52.036;5.906;2023-09-19T06:09:01;11.55;;;1.90;;
42030;SDS011;27709;52.036;5.906;2023-09-19T06:11:27;8.95;;;2.03;;
42030;SDS011;27709;52.036;5.906;2023-09-19T06:13:54;8.60;;;1.77;;
42030;SDS011;27709;52.036;5.906;2023-09-19T06:16:19;9.40;;;1.48;;
42030;SDS011;27709;52.036;5.906;2023-09-19T06:18:45;11.85;;;1.65;;
42030;SDS011;27709;52.036;5.906;2023-09-19T06:21:12;10.05;;;1.60;;
42030;SDS011;27709;52.036;5.906;2023-09-19T06:23:37;9.85;;;1.83;;
42030;SDS011;27709;52.036;5.906;2023-09-19T06:26:03;11.32;;;1.50;;
42030;SDS011;27709;52.036;5.906;2023-09-19T06:28:31;8.88;;;1.67;;
42030;SDS011;27709;52.036;5.906;2023-09-19T06:30:58;7.28;;;1.50;;
42030;SDS011;27709;52.036;5.906;2023-09-19T06:33:24;7.00;;;1.60;;
42030;SDS011;27709;52.036;5.906;2023-09-19T06:35:50;10.77;;;1.40;;
42030;SDS011;27709;52.036;5.906;2023-09-19T06:38:17;7.10;;;1.60;;
42030;SDS011;27709;52.036;5.906;2023-09-19T06:40:44;10.27;;;1.60;;
42030;SDS011;27709;52.036;5.906;2023-09-19T06:43:10;8.10;;;1.50;;
42030;SDS011;27709;52.036;5.906;2023-09-19T06:45:36;9.45;;;1.20;;
42030;SDS011;27709;52.036;5.906;2023-09-19T06:48:02;7.95;;;1.30;;
42030;SDS011;27709;52.036;5.906;2023-09-19T06:50:28;6.82;;;1.83;;
42030;SDS011;27709;52.036;5.906;2023-09-19T06:52:55;9.40;;;1.67;;
42030;SDS011;27709;52.036;5.906;2023-09-19T06:55:22;10.00;;;1.70;;
42030;SDS011;27709;52.036;5.906;2023-09-19T06:57:52;11.43;;;1.90;;
42030;SDS011;27709;52.036;5.906;2023-09-19T07:00:21;11.30;;;1.73;;
42030;SDS011;27709;52.036;5.906;2023-09-19T07:03:21;8.95;;;1.80;;
42030;SDS011;27709;52.036;5.906;2023-09-19T07:05:43;7.28;;;1.48;;
42030;SDS011;27709;52.036;5.906;2023-09-19T07:08:09;8.32;;;1.48;;
42030;SDS011;27709;52.036;5.906;2023-09-19T07:10:37;10.23;;;1.70;;
42030;SDS011;27709;52.036;5.906;2023-09-19T07:13:06;8.98;;;1.98;;
42030;SDS011;27709;52.036;5.906;2023-09-19T07:15:35;10.05;;;1.55;;
42030;SDS011;27709;52.036;5.906;2023-09-19T07:18:05;10.43;;;1.77;;
42030;SDS011;27709;52.036;5.906;2023-09-19T07:20:31;12.82;;;2.15;;
42030;SDS011;27709;52.036;5.906;2023-09-19T07:22:58;12.10;;;1.40;;
42030;SDS011;27709;52.036;5.906;2023-09-19T07:25:29;9.40;;;1.55;;
42030;SDS011;27709;52.036;5.906;2023-09-19T07:27:55;8.60;;;1.70;;
42030;SDS011;27709;52.036;5.906;2023-09-19T07:30:25;11.25;;;1.50;;
42030;SDS011;27709;52.036;5.906;2023-09-19T07:32:51;7.30;;;1.25;;
42030;SDS011;27709;52.036;5.906;2023-09-19T07:35:20;6.90;;;1.50;;
42030;SDS011;27709;52.036;5.906;2023-09-19T07:37:46;11.25;;;1.70;;
42030;SDS011;27709;52.036;5.906;2023-09-19T07:40:15;9.35;;;1.63;;
42030;SDS011;27709;52.036;5.906;2023-09-19T07:42:41;11.70;;;1.88;;
42030;SDS011;27709;52.036;5.906;2023-09-19T07:45:08;10.20;;;1.77;;
42030;SDS011;27709;52.036;5.906;2023-09-19T07:47:34;11.95;;;1.92;;
42030;SDS011;27709;52.036;5.906;2023-09-19T07:50:01;10.00;;;1.70;;
42030;SDS011;27709;52.036;5.906;2023-09-19T07:52:27;8.80;;;1.60;;
42030;SDS011;27709;52.036;5.906;2023-09-19T07:54:53;9.57;;;1.88;;
42030;SDS011;27709;52.036;5.906;2023-09-19T07:57:19;9.35;;;1.83;;
42030;SDS011;27709;52.036;5.906;2023-09-19T07:59:45;9.95;;;1.85;;
42030;SDS011;27709;52.036;5.906;2023-09-19T08:02:14;7.88;;;1.50;;
42030;SDS011;27709;52.036;5.906;2023-09-19T08:04:44;9.23;;;1.63;;
42030;SDS011;27709;52.036;5.906;2023-09-19T08:07:14;10.20;;;1.65;;
42030;SDS011;27709;52.036;5.906;2023-09-19T08:09:49;9.57;;;1.40;;
42030;SDS011;27709;52.036;5.906;2023-09-19T08:12:14;10.80;;;1.80;;
42030;SDS011;27709;52.036;5.906;2023-09-19T08:14:40;9.15;;;1.58;;
42030;SDS011;27709;52.036;5.906;2023-09-19T08:17:08;7.18;;;1.52;;
42030;SDS011;27709;52.036;5.906;2023-09-19T08:19:34;10.90;;;1.83;;
42030;SDS011;27709;52.036;5.906;2023-09-19T08:22:01;8.00;;;1.80;;
42030;SDS011;27709;52.036;5.906;2023-09-19T08:24:28;10.02;;;1.67;;
42030;SDS011;27709;52.036;5.906;2023-09-19T08:26:55;11.75;;;1.85;;
42030;SDS011;27709;52.036;5.906;2023-09-19T08:29:24;9.18;;;1.70;;
42030;SDS011;27709;52.036;5.906;2023-09-19T08:31:53;12.20;;;2.03;;
42030;SDS011;27709;52.036;5.906;2023-09-19T08:34:23;11.52;;;1.67;;
42030;SDS011;27709;52.036;5.906;2023-09-19T08:36:53;7.63;;;1.63;;
42030;SDS011;27709;52.036;5.906;2023-09-19T08:39:22;8.95;;;1.92;;
42030;SDS011;27709;52.036;5.906;2023-09-19T08:41:57;9.23;;;1.75;;
42030;SDS011;27709;52.036;5.906;2023-09-19T08:44:26;7.60;;;1.80;;
42030;SDS011;27709;52.036;5.906;2023-09-19T08:46:55;8.10;;;1.77;;
42030;SDS011;27709;52.036;5.906;2023-09-19T08:49:40;9.88;;;1.67;;
42030;SDS011;27709;52.036;5.906;2023-09-19T08:52:25;8.52;;;1.80;;
42030;SDS011;27709;52.036;5.906;2023-09-19T08:54:53;7.60;;;1.45;;
42030;SDS011;27709;52.036;5.906;2023-09-19T08:57:27;10.10;;;1.90;;
42030;SDS011;27709;52.036;5.906;2023-09-19T08:59:54;8.32;;;1.63;;
42030;SDS011;27709;52.036;5.906;2023-09-19T09:02:21;8.30;;;1.73;;
42030;SDS011;27709;52.036;5.906;2023-09-19T09:04:48;9.05;;;1.90;;
42030;SDS011;27709;52.036;5.906;2023-09-19T09:07:15;11.98;;;2.30;;
42030;SDS011;27709;52.036;5.906;2023-09-19T09:09:44;8.45;;;1.60;;
42030;SDS011;27709;52.036;5.906;2023-09-19T09:12:13;11.55;;;2.17;;
42030;SDS011;27709;52.036;5.906;2023-09-19T09:14:40;12.02;;;2.40;;
42030;SDS011;27709;52.036;5.906;2023-09-19T09:17:15;8.90;;;1.67;;
42030;SDS011;27709;52.036;5.906;2023-09-19T09:19:45;9.02;;;1.80;;
42030;SDS011;27709;52.036;5.906;2023-09-19T09:22:12;9.50;;;2.35;;
42030;SDS011;27709;52.036;5.906;2023-09-19T09:24:38;9.02;;;1.77;;
42030;SDS011;27709;52.036;5.906;2023-09-19T09:27:19;9.00;;;2.25;;
42030;SDS011;27709;52.036;5.906;2023-09-19T09:29:46;9.68;;;2.10;;
42030;SDS011;27709;52.036;5.906;2023-09-19T09:32:18;10.95;;;2.55;;
42030;SDS011;27709;52.036;5.906;2023-09-19T09:34:45;8.23;;;1.95;;
42030;SDS011;27709;52.036;5.906;2023-09-19T09:37:15;9.82;;;2.30;;
42030;SDS011;27709;52.036;5.906;2023-09-19T09:40:06;9.82;;;1.70;;
42030;SDS011;27709;52.036;5.906;2023-09-19T09:42:40;9.25;;;1.73;;
42030;SDS011;27709;52.036;5.906;2023-09-19T09:47:46;8.25;;;1.50;;
42030;SDS011;27709;52.036;5.906;2023-09-19T09:50:27;8.73;;;1.80;;
42030;SDS011;27709;52.036;5.906;2023-09-19T09:55:59;7.35;;;1.30;;
42030;SDS011;27709;52.036;5.906;2023-09-19T09:58:30;5.90;;;1.42;;
42030;SDS011;27709;52.036;5.906;2023-09-19T10:01:05;7.60;;;1.58;;
42030;SDS011;27709;52.036;5.906;2023-09-19T10:03:35;9.48;;;1.60;;
42030;SDS011;27709;52.036;5.906;2023-09-19T10:06:09;7.05;;;1.35;;
42030;SDS011;27709;52.036;5.906;2023-09-19T10:09:03;5.88;;;1.40;;
42030;SDS011;27709;52.036;5.906;2023-09-19T10:11:38;7.53;;;1.60;;
42030;SDS011;27709;52.036;5.906;2023-09-19T10:14:08;6.85;;;1.52;;
42030;SDS011;27709;52.036;5.906;2023-09-19T10:16:37;9.10;;;1.60;;
42030;SDS011;27709;52.036;5.906;2023-09-19T10:19:09;8.57;;;1.77;;
42030;SDS011;27709;52.036;5.906;2023-09-19T10:21:36;8.75;;;1.48;;
42030;SDS011;27709;52.036;5.906;2023-09-19T10:24:04;6.60;;;1.77;;
42030;SDS011;27709;52.036;5.906;2023-09-19T10:26:34;8.18;;;1.98;;
42030;SDS011;27709;52.036;5.906;2023-09-19T10:29:01;8.45;;;1.90;;
42030;SDS011;27709;52.036;5.906;2023-09-19T10:31:32;8.13;;;1.70;;
42030;SDS011;27709;52.036;5.906;2023-09-19T10:34:00;9.73;;;1.67;;
42030;SDS011;27709;52.036;5.906;2023-09-19T10:36:29;6.03;;;1.33;;
42030;SDS011;27709;52.036;5.906;2023-09-19T10:38:59;10.63;;;1.90;;
42030;SDS011;27709;52.036;5.906;2023-09-19T10:41:29;12.32;;;1.80;;
42030;SDS011;27709;52.036;5.906;2023-09-19T10:43:59;6.65;;;1.38;;
42030;SDS011;27709;52.036;5.906;2023-09-19T10:46:34;9.75;;;1.63;;
42030;SDS011;27709;52.036;5.906;2023-09-19T10:49:00;7.28;;;1.23;;
42030;SDS011;27709;52.036;5.906;2023-09-19T10:51:29;7.95;;;1.50;;
42030;SDS011;27709;52.036;5.906;2023-09-19T10:54:08;11.02;;;1.75;;
42030;SDS011;27709;52.036;5.906;2023-09-19T10:56:38;7.93;;;1.40;;
42030;SDS011;27709;52.036;5.906;2023-09-19T10:59:10;9.80;;;1.85;;
42030;SDS011;27709;52.036;5.906;2023-09-19T11:01:42;8.65;;;1.80;;
42030;SDS011;27709;52.036;5.906;2023-09-19T11:09:47;9.60;;;1.85;;
42030;SDS011;27709;52.036;5.906;2023-09-19T11:14:58;9.57;;;1.73;;
42030;SDS011;27709;52.036;5.906;2023-09-19T11:30:46;9.85;;;1.90;;
42030;SDS011;27709;52.036;5.906;2023-09-19T11:36:12;7.35;;;1.52;;
42030;SDS011;27709;52.036;5.906;2023-09-19T11:43:46;9.30;;;1.70;;
42030;SDS011;27709;52.036;5.906;2023-09-19T11:46:12;7.07;;;1.17;;
42030;SDS011;27709;52.036;5.906;2023-09-19T11:48:42;7.32;;;1.30;;
42030;SDS011;27709;52.036;5.906;2023-09-19T11:51:13;7.90;;;1.20;;
42030;SDS011;27709;52.036;5.906;2023-09-19T11:53:48;7.93;;;1.30;;
42030;SDS011;27709;52.036;5.906;2023-09-19T11:56:15;7.63;;;1.60;;
42030;SDS011;27709;52.036;5.906;2023-09-19T11:58:43;9.98;;;1.27;;
42030;SDS011;27709;52.036;5.906;2023-09-19T12:01:12;6.63;;;1.30;;
42030;SDS011;27709;52.036;5.906;2023-09-19T12:03:46;8.00;;;1.27;;
42030;SDS011;27709;52.036;5.906;2023-09-19T12:06:15;7.82;;;1.33;;
42030;SDS011;27709;52.036;5.906;2023-09-19T12:08:41;8.05;;;1.50;;
42030;SDS011;27709;52.036;5.906;2023-09-19T12:11:12;5.47;;;1.25;;
42030;SDS011;27709;52.036;5.906;2023-09-19T12:13:46;7.15;;;1.33;;
42030;SDS011;27709;52.036;5.906;2023-09-19T12:16:17;6.63;;;1.58;;
42030;SDS011;27709;52.036;5.906;2023-09-19T12:18:47;5.85;;;1.23;;
42030;SDS011;27709;52.036;5.906;2023-09-19T12:21:21;7.38;;;1.55;;
42030;SDS011;27709;52.036;5.906;2023-09-19T12:24:13;6.63;;;0.90;;
42030;SDS011;27709;52.036;5.906;2023-09-19T12:26:45;6.80;;;1.20;;
42030;SDS011;27709;52.036;5.906;2023-09-19T12:29:13;8.32;;;1.30;;
42030;SDS011;27709;52.036;5.906;2023-09-19T12:34:21;6.60;;;1.00;;
42030;SDS011;27709;52.036;5.906;2023-09-19T12:36:48;7.38;;;1.45;;
42030;SDS011;27709;52.036;5.906;2023-09-19T12:39:23;6.65;;;1.00;;
42030;SDS011;27709;52.036;5.906;2023-09-19T12:41:50;7.22;;;1.00;;
42030;SDS011;27709;52.036;5.906;2023-09-19T12:44:18;4.28;;;0.73;;
42030;SDS011;27709;52.036;5.906;2023-09-19T12:46:44;5.25;;;1.00;;
42030;SDS011;27709;52.036;5.906;2023-09-19T12:49:16;4.15;;;0.90;;
42030;SDS011;27709;52.036;5.906;2023-09-19T12:51:43;5.75;;;1.00;;
42030;SDS011;27709;52.036;5.906;2023-09-19T12:54:10;5.03;;;0.90;;
42030;SDS011;27709;52.036;5.906;2023-09-19T12:56:39;5.80;;;0.85;;
42030;SDS011;27709;52.036;5.906;2023-09-19T12:59:09;5.45;;;0.90;;
42030;SDS011;27709;52.036;5.906;2023-09-19T13:01:38;4.35;;;0.70;;
42030;SDS011;27709;52.036;5.906;2023-09-19T13:04:19;3.55;;;0.90;;
42030;SDS011;27709;52.036;5.906;2023-09-19T13:06:51;4.15;;;0.70;;
42030;SDS011;27709;52.036;5.906;2023-09-19T13:09:18;5.32;;;0.70;;
42030;SDS011;27709;52.036;5.906;2023-09-19T13:11:46;5.07;;;0.75;;
42030;SDS011;27709;52.036;5.906;2023-09-19T13:14:25;4.47;;;0.82;;
42030;SDS011;27709;52.036;5.906;2023-09-19T13:22:37;4.75;;;0.80;;
42030;SDS011;27709;52.036;5.906;2023-09-19T13:25:14;3.55;;;0.60;;
42030;SDS011;27709;52.036;5.906;2023-09-19T13:27:43;4.20;;;0.65;;
42030;SDS011;27709;52.036;5.906;2023-09-19T13:30:09;3.92;;;0.70;;
42030;SDS011;27709;52.036;5.906;2023-09-19T13:32:36;3.85;;;0.80;;
42030;SDS011;27709;52.036;5.906;2023-09-19T13:35:02;4.00;;;0.80;;
42030;SDS011;27709;52.036;5.906;2023-09-19T13:37:30;4.88;;;0.80;;
42030;SDS011;27709;52.036;5.906;2023-09-19T13:39:55;2.97;;;0.60;;
42030;SDS011;27709;52.036;5.906;2023-09-19T13:42:22;2.63;;;0.60;;
42030;SDS011;27709;52.036;5.906;2023-09-19T13:44:50;5.60;;;0.90;;
42030;SDS011;27709;52.036;5.906;2023-09-19T13:47:16;6.25;;;0.70;;
42030;SDS011;27709;52.036;5.906;2023-09-19T13:49:41;4.10;;;0.52;;
42030;SDS011;27709;52.036;5.906;2023-09-19T13:52:08;5.07;;;0.60;;
42030;SDS011;27709;52.036;5.906;2023-09-19T13:54:34;5.32;;;0.73;;
42030;SDS011;27709;52.036;5.906;2023-09-19T13:57:00;5.05;;;0.70;;
42030;SDS011;27709;52.036;5.906;2023-09-19T13:59:25;3.78;;;0.50;;
42030;SDS011;27709;52.036;5.906;2023-09-19T14:01:53;3.63;;;0.60;;
42030;SDS011;27709;52.036;5.906;2023-09-19T14:04:19;3.75;;;0.65;;
42030;SDS011;27709;52.036;5.906;2023-09-19T14:06:47;5.00;;;0.60;;
42030;SDS011;27709;52.036;5.906;2023-09-19T14:09:14;2.47;;;0.52;;
42030;SDS011;27709;52.036;5.906;2023-09-19T14:11:44;3.42;;;0.50;;
42030;SDS011;27709;52.036;5.906;2023-09-19T14:14:12;2.45;;;0.55;;
42030;SDS011;27709;52.036;5.906;2023-09-19T14:16:37;1.33;;;0.40;;
42030;SDS011;27709;52.036;5.906;2023-09-19T14:19:04;5.97;;;0.95;;
42030;SDS011;27709;52.036;5.906;2023-09-19T14:21:30;3.63;;;0.55;;
42030;SDS011;27709;52.036;5.906;2023-09-19T14:23:56;4.60;;;0.50;;
42030;SDS011;27709;52.036;5.906;2023-09-19T14:26:22;1.88;;;0.50;;
42030;SDS011;27709;52.036;5.906;2023-09-19T14:28:48;4.15;;;0.70;;
42030;SDS011;27709;52.036;5.906;2023-09-19T14:31:14;4.75;;;0.60;;
42030;SDS011;27709;52.036;5.906;2023-09-19T14:33:40;2.65;;;0.50;;
42030;SDS011;27709;52.036;5.906;2023-09-19T14:36:09;3.88;;;0.60;;
42030;SDS011;27709;52.036;5.906;2023-09-19T14:38:36;3.55;;;0.60;;
42030;SDS011;27709;52.036;5.906;2023-09-19T14:41:02;4.13;;;0.65;;
42030;SDS011;27709;52.036;5.906;2023-09-19T14:43:29;4.80;;;0.98;;
42030;SDS011;27709;52.036;5.906;2023-09-19T14:45:57;5.85;;;0.77;;
42030;SDS011;27709;52.036;5.906;2023-09-19T14:48:27;4.88;;;0.68;;
42030;SDS011;27709;52.036;5.906;2023-09-19T14:50:52;3.58;;;0.60;;
42030;SDS011;27709;52.036;5.906;2023-09-19T14:53:20;4.28;;;0.77;;
42030;SDS011;27709;52.036;5.906;2023-09-19T14:55:45;4.90;;;0.80;;
42030;SDS011;27709;52.036;5.906;2023-09-19T14:58:12;3.92;;;0.60;;
42030;SDS011;27709;52.036;5.906;2023-09-19T15:00:38;2.95;;;0.60;;
42030;SDS011;27709;52.036;5.906;2023-09-19T15:03:04;5.55;;;0.80;;
42030;SDS011;27709;52.036;5.906;2023-09-19T15:05:30;4.00;;;0.70;;
42030;SDS011;27709;52.036;5.906;2023-09-19T15:07:56;3.95;;;0.93;;
42030;SDS011;27709;52.036;5.906;2023-09-19T15:10:23;3.75;;;0.70;;
42030;SDS011;27709;52.036;5.906;2023-09-19T15:12:50;4.35;;;0.70;;
42030;SDS011;27709;52.036;5.906;2023-09-19T15:15:16;4.72;;;0.73;;
42030;SDS011;27709;52.036;5.906;2023-09-19T15:17:41;6.80;;;0.70;;
42030;SDS011;27709;52.036;5.906;2023-09-19T15:20:07;4.70;;;0.80;;
42030;SDS011;27709;52.036;5.906;2023-09-19T15:22:33;5.90;;;0.80;;
42030;SDS011;27709;52.036;5.906;2023-09-19T15:24:59;3.63;;;0.95;;
42030;SDS011;27709;52.036;5.906;2023-09-19T15:27:27;2.40;;;0.52;;
42030;SDS011;27709;52.036;5.906;2023-09-19T15:29:53;4.88;;;0.68;;
42030;SDS011;27709;52.036;5.906;2023-09-19T15:32:18;6.90;;;0.80;;
42030;SDS011;27709;52.036;5.906;2023-09-19T15:34:43;4.82;;;0.70;;
42030;SDS011;27709;52.036;5.906;2023-09-19T15:37:09;3.67;;;0.70;;
42030;SDS011;27709;52.036;5.906;2023-09-19T15:39:37;3.40;;;0.75;;
42030;SDS011;27709;52.036;5.906;2023-09-19T15:42:02;3.40;;;0.80;;
42030;SDS011;27709;52.036;5.906;2023-09-19T15:44:28;2.80;;;0.68;;
42030;SDS011;27709;52.036;5.906;2023-09-19T15:46:53;3.03;;;0.52;;
42030;SDS011;27709;52.036;5.906;2023-09-19T15:49:19;4.47;;;0.75;;
42030;SDS011;27709;52.036;5.906;2023-09-19T15:51:45;4.63;;;0.90;;
42030;SDS011;27709;52.036;5.906;2023-09-19T15:54:11;3.65;;;0.70;;
42030;SDS011;27709;52.036;5.906;2023-09-19T15:56:41;4.68;;;0.98;;